Time;durP1;ratioP1;P1;durP2;ratioP2;P2;SDS_P1;SDS_P2;PMS_P1;PMS_P2;Temp;Humidity;BMP_temperature;BMP_pressure;BME280_temperature;BME280_humidity;BME280_pressure;Samples;Min_cycle;Max_cycle;Signal;HPM_P1;HPM_P2
2022/08/14 00:02:16;;;;;;;9.40;7.27;;;23.60;62.10;;;;;;5079174;28;20474;-79
2022/08/14 00:04:44;;;;;;;10.07;7.70;;;23.60;62.10;;;;;;5085847;28;21286;-79
2022/08/14 00:07:13;;;;;;;9.10;7.50;;;23.60;62.20;;;;;;5077218;28;20467;-80
2022/08/14 00:09:42;;;;;;;10.70;6.80;;;23.60;62.30;;;;;;5086119;28;20475;-78
2022/08/14 00:12:31;;;;;;;9.70;7.20;;;23.60;62.30;;;;;;5084468;28;20497;-79
2022/08/14 00:15:10;;;;;;;10.87;7.13;;;23.60;62.20;;;;;;5085284;28;20461;-79
2022/08/14 00:17:40;;;;;;;11.43;8.43;;;23.50;62.30;;;;;;5066484;28;20997;-79
2022/08/14 00:20:22;;;;;;;11.93;8.07;;;23.50;62.30;;;;;;5088512;28;20450;-78
2022/08/14 00:23:05;;;;;;;10.20;8.30;;;23.50;62.40;;;;;;5091493;28;20485;-79
2022/08/14 00:25:44;;;;;;;10.53;8.43;;;23.40;62.50;;;;;;5063591;28;20517;-78
2022/08/14 00:28:32;;;;;;;10.00;7.33;;;23.40;62.50;;;;;;5081970;28;20504;-78
2022/08/14 00:31:05;;;;;;;12.73;7.67;;;23.40;62.50;;;;;;5086961;28;20466;-79
2022/08/14 00:33:35;;;;;;;11.80;8.10;;;23.40;62.50;;;;;;5078853;28;20491;-79
2022/08/14 00:36:21;;;;;;;11.93;7.90;;;23.30;62.60;;;;;;5087170;28;20540;-80
2022/08/14 00:39:13;;;;;;;12.83;9.30;;;23.30;62.70;;;;;;5080011;28;20517;-80
2022/08/14 00:41:45;;;;;;;12.37;9.00;;;23.20;62.70;;;;;;5083680;28;20475;-79
2022/08/14 00:44:14;;;;;;;13.40;8.93;;;23.20;62.90;;;;;;5081818;28;21091;-79
2022/08/14 00:46:54;;;;;;;11.90;8.80;;;23.20;63.00;;;;;;5077592;28;20845;-80
2022/08/14 00:49:27;;;;;;;12.17;8.90;;;23.20;63.20;;;;;;5080101;28;20462;-78
2022/08/14 00:51:58;;;;;;;11.07;8.80;;;23.20;63.20;;;;;;5081959;28;20454;-79
2022/08/14 00:54:26;;;;;;;12.30;9.40;;;23.20;63.30;;;;;;5082170;28;20491;-79
2022/08/14 00:56:56;;;;;;;11.93;9.50;;;23.10;63.50;;;;;;5081227;28;20455;-80
2022/08/14 00:59:26;;;;;;;10.30;8.50;;;23.10;63.60;;;;;;5082998;28;20462;-80
2022/08/14 01:01:58;;;;;;;12.70;10.40;;;23.20;63.70;;;;;;5080026;28;20565;-79
2022/08/14 01:04:30;;;;;;;16.43;9.70;;;23.20;63.70;;;;;;5084236;28;20475;-80
2022/08/14 01:07:20;;;;;;;12.00;9.17;;;23.10;63.70;;;;;;5078064;28;20515;-78
2022/08/14 01:09:50;;;;;;;12.53;9.70;;;23.00;63.80;;;;;;5075958;28;20451;-79
2022/08/14 01:12:19;;;;;;;12.47;8.73;;;23.00;63.80;;;;;;5077785;28;20467;-78
2022/08/14 01:14:56;;;;;;;14.43;9.37;;;23.00;63.90;;;;;;5083440;28;20487;-79
2022/08/14 01:21:02;;;;;;;11.37;8.87;;;22.90;64.00;;;;;;5075634;28;20485;-81
2022/08/14 01:23:11;;;;;;;12.50;9.53;;;22.90;64.10;;;;;;5065679;28;20501;-76
2022/08/14 01:25:47;;;;;;;12.70;10.43;;;22.90;64.00;;;;;;5071627;28;20460;-78
2022/08/14 01:28:15;;;;;;;14.27;9.87;;;22.80;64.10;;;;;;5077885;28;20541;-79
2022/08/14 01:31:08;;;;;;;14.50;10.30;;;22.70;64.20;;;;;;5079907;28;20502;-79
2022/08/14 01:33:39;;;;;;;12.33;9.63;;;22.70;64.50;;;;;;5079769;28;20486;-78
2022/08/14 01:36:33;;;;;;;11.93;9.70;;;22.70;64.50;;;;;;5082929;28;20457;-78
2022/08/14 01:39:06;;;;;;;14.87;9.73;;;22.60;64.40;;;;;;5081576;28;20458;-79
2022/08/14 01:41:37;;;;;;;13.07;10.07;;;22.60;64.50;;;;;;5079687;28;20457;-78
2022/08/14 01:44:11;;;;;;;11.67;9.00;;;22.50;64.70;;;;;;5079470;28;20475;-77
2022/08/14 01:47:00;;;;;;;12.53;10.03;;;22.50;64.80;;;;;;5071600;28;20481;-79
2022/08/14 01:49:32;;;;;;;13.87;10.83;;;22.50;65.00;;;;;;5096180;28;20803;-78
2022/08/14 01:52:12;;;;;;;14.43;10.73;;;22.60;65.00;;;;;;5062554;28;20853;-79
2022/08/14 01:55:02;;;;;;;18.77;10.97;;;22.60;65.00;;;;;;5058652;28;21050;-79
2022/08/14 01:57:36;;;;;;;13.37;10.40;;;22.60;65.00;;;;;;5080794;28;20457;-78
2022/08/14 02:00:24;;;;;;;13.70;10.80;;;22.60;65.00;;;;;;5074678;28;21406;-80
2022/08/14 02:02:55;;;;;;;11.63;9.50;;;22.60;65.00;;;;;;5075024;28;20508;-79
2022/08/14 02:05:28;;;;;;;13.17;11.00;;;22.60;65.10;;;;;;5085762;28;20459;-79
2022/08/14 02:08:02;;;;;;;14.33;11.20;;;22.50;65.10;;;;;;5081950;28;20558;-77
2022/08/14 02:10:39;;;;;;;13.20;10.50;;;22.50;65.10;;;;;;5065546;28;20488;-79
2022/08/14 02:13:15;;;;;;;12.90;10.90;;;22.50;65.20;;;;;;5083153;28;20478;-79
2022/08/14 02:15:44;;;;;;;16.00;11.30;;;22.50;65.20;;;;;;5083831;28;20485;-78
2022/08/14 02:18:15;;;;;;;13.53;10.80;;;22.50;65.30;;;;;;5079495;28;21095;-79
2022/08/14 02:20:47;;;;;;;14.97;12.13;;;22.50;65.50;;;;;;5063026;28;20528;-80
2022/08/14 02:23:15;;;;;;;13.93;11.50;;;22.40;65.50;;;;;;5082515;28;20974;-78
2022/08/14 02:25:52;;;;;;;14.53;11.30;;;22.50;65.50;;;;;;5065317;28;20470;-78
2022/08/14 02:28:21;;;;;;;13.33;11.13;;;22.40;65.50;;;;;;5064768;28;20548;-78
2022/08/14 02:31:11;;;;;;;18.33;11.20;;;22.30;65.50;;;;;;5086183;28;20487;-79
2022/08/14 02:33:43;;;;;;;14.20;10.43;;;22.30;65.70;;;;;;5079878;28;20486;-78
2022/08/14 02:36:12;;;;;;;13.33;11.00;;;22.20;65.80;;;;;;5077832;28;20967;-77
2022/08/14 02:39:00;;;;;;;13.27;10.90;;;22.30;65.90;;;;;;5066775;28;20464;-77
2022/08/14 02:41:31;;;;;;;13.60;11.47;;;22.20;65.90;;;;;;5082080;28;21306;-78
2022/08/14 02:44:09;;;;;;;14.30;10.80;;;22.20;65.80;;;;;;5081542;28;21013;-79
2022/08/14 02:46:37;;;;;;;15.20;11.33;;;22.20;65.80;;;;;;5080295;28;20479;-78
2022/08/14 02:49:10;;;;;;;13.53;10.70;;;22.20;65.80;;;;;;5078699;28;20529;-78
2022/08/14 02:51:38;;;;;;;18.43;10.90;;;22.10;65.80;;;;;;5086973;28;20531;-77
2022/08/14 02:54:08;;;;;;;15.87;13.07;;;22.10;65.90;;;;;;5086767;28;20508;-76
2022/08/14 02:56:41;;;;;;;15.67;12.63;;;22.10;66.00;;;;;;5088472;28;20498;-78
2022/08/14 02:59:31;;;;;;;14.43;12.10;;;22.00;66.10;;;;;;5081063;28;20510;-76
2022/08/14 03:02:00;;;;;;;14.73;11.80;;;22.00;66.20;;;;;;5078043;28;20486;-77
2022/08/14 03:04:29;;;;;;;13.33;11.07;;;22.00;66.10;;;;;;5084888;28;20461;-79
2022/08/14 03:06:58;;;;;;;14.37;11.67;;;22.00;66.10;;;;;;5083516;28;20461;-78
2022/08/14 03:09:36;;;;;;;14.90;10.73;;;21.90;66.10;;;;;;5081532;28;20549;-79
2022/08/14 03:12:25;;;;;;;18.30;12.60;;;21.90;66.20;;;;;;5074557;28;20458;-78
2022/08/14 03:14:58;;;;;;;13.53;11.10;;;21.80;66.30;;;;;;5079709;28;20460;-79
2022/08/14 03:17:27;;;;;;;14.53;11.60;;;21.80;66.40;;;;;;5076294;28;21158;-78
2022/08/14 03:20:14;;;;;;;15.10;12.63;;;21.80;66.40;;;;;;5058918;28;20520;-78
2022/08/14 03:22:44;;;;;;;15.10;11.90;;;21.80;66.40;;;;;;5061298;28;20485;-77
2022/08/14 03:25:17;;;;;;;15.13;12.17;;;21.80;66.40;;;;;;5070292;28;20448;-77
2022/08/14 03:27:47;;;;;;;15.30;11.87;;;21.70;66.50;;;;;;5080600;28;20972;-79
2022/08/14 03:30:31;;;;;;;15.63;12.33;;;21.70;66.50;;;;;;5076809;28;20527;-78
2022/08/14 03:33:08;;;;;;;19.00;12.50;;;21.70;66.60;;;;;;5078651;28;20478;-79
2022/08/14 03:35:38;;;;;;;14.33;11.53;;;21.70;66.60;;;;;;5084535;28;20485;-76
2022/08/14 03:38:26;;;;;;;13.63;11.67;;;21.70;66.60;;;;;;5081220;28;20457;-78
2022/08/14 03:41:16;;;;;;;15.87;12.57;;;21.60;66.70;;;;;;5080304;28;20461;-78
2022/08/14 03:43:46;;;;;;;13.33;11.47;;;21.60;66.70;;;;;;5086007;28;20488;-77
2022/08/14 03:46:31;;;;;;;14.50;12.60;;;21.60;66.80;;;;;;5063087;28;20573;-79
2022/08/14 03:49:23;;;;;;;13.47;12.00;;;21.60;66.80;;;;;;5084969;28;20450;-78
2022/08/14 03:51:56;;;;;;;14.27;12.37;;;21.50;66.80;;;;;;5077841;28;20450;-77
2022/08/14 03:54:25;;;;;;;13.80;12.30;;;21.50;66.90;;;;;;5079041;28;20551;-79
2022/08/14 03:56:53;;;;;;;14.20;11.90;;;21.50;66.80;;;;;;5080937;28;20515;-77
2022/08/14 03:59:23;;;;;;;14.90;13.03;;;21.40;66.70;;;;;;5078852;28;20462;-78
2022/08/14 04:01:55;;;;;;;19.20;12.77;;;21.40;66.60;;;;;;5075728;28;20504;-78
2022/08/14 04:04:29;;;;;;;14.10;12.10;;;21.30;66.70;;;;;;5081767;28;21464;-77
2022/08/14 04:06:59;;;;;;;15.60;12.33;;;21.30;66.80;;;;;;5084737;28;20458;-79
2022/08/14 04:09:27;;;;;;;17.50;13.33;;;21.20;66.90;;;;;;5083032;28;21627;-78
2022/08/14 04:11:55;;;;;;;19.13;13.40;;;21.20;67.10;;;;;;5082060;28;20449;-79
2022/08/14 04:14:27;;;;;;;16.60;12.97;;;21.20;67.10;;;;;;5081808;28;21075;-78
2022/08/14 04:16:56;;;;;;;17.17;12.30;;;21.20;67.10;;;;;;5081385;28;20481;-77
2022/08/14 04:19:24;;;;;;;16.30;13.33;;;21.10;67.10;;;;;;5080891;28;20468;-78
2022/08/14 04:21:59;;;;;;;17.10;13.30;;;21.10;67.20;;;;;;5062349;28;20465;-78
2022/08/14 04:24:31;;;;;;;17.70;11.27;;;21.10;67.20;;;;;;5083374;28;20562;-77
2022/08/14 04:27:07;;;;;;;15.93;12.80;;;21.00;67.20;;;;;;5077598;28;20531;-78
2022/08/14 04:29:38;;;;;;;15.93;12.47;;;21.00;67.30;;;;;;5065752;28;20477;-78
2022/08/14 04:32:07;;;;;;;14.47;12.20;;;21.00;67.40;;;;;;5078448;28;21040;-77
2022/08/14 04:34:55;;;;;;;16.17;11.93;;;21.00;67.50;;;;;;5073878;28;20571;-76
2022/08/14 04:45:47;;;;;;;16.87;13.80;;;21.10;67.50;;;;;;5083064;28;20561;-78
2022/08/14 04:48:19;;;;;;;15.33;12.90;;;21.00;67.60;;;;;;5079541;28;20481;-77
2022/08/14 04:51:09;;;;;;;15.73;12.93;;;21.00;67.70;;;;;;5084134;28;20454;-78
2022/08/14 04:53:40;;;;;;;15.27;13.27;;;21.10;67.70;;;;;;5077468;28;20531;-78
2022/08/14 04:56:11;;;;;;;16.53;13.30;;;21.10;67.70;;;;;;5080560;28;20489;-78
2022/08/14 04:59:05;;;;;;;15.33;13.00;;;21.10;67.80;;;;;;5077891;28;20461;-77
2022/08/14 05:01:43;;;;;;;22.93;14.17;;;21.20;68.00;;;;;;5082211;28;20474;-76
2022/08/14 05:04:18;;;;;;;16.33;12.50;;;21.30;68.20;;;;;;5083972;28;20487;-79
2022/08/14 05:06:48;;;;;;;15.93;12.53;;;21.50;68.50;;;;;;5081419;28;20452;-78
2022/08/14 05:09:16;;;;;;;15.53;13.43;;;21.70;68.60;;;;;;5075860;28;20537;-79
2022/08/14 05:11:46;;;;;;;19.27;13.40;;;22.00;68.70;;;;;;5057060;28;20449;-77
2022/08/14 05:14:14;;;;;;;15.37;12.80;;;22.50;68.00;;;;;;5074707;28;20492;-78
2022/08/14 05:17:03;;;;;;;16.80;13.60;;;23.20;66.80;;;;;;5072684;28;20478;-78
2022/08/14 05:19:33;;;;;;;16.23;12.60;;;24.10;65.30;;;;;;5079948;28;20627;-77
2022/08/14 05:22:11;;;;;;;16.10;13.17;;;24.80;64.10;;;;;;5062335;28;20547;-79
2022/08/14 05:24:48;;;;;;;17.60;13.17;;;25.60;63.10;;;;;;5083262;28;20519;-78
2022/08/14 05:27:19;;;;;;;19.20;12.73;;;26.30;62.00;;;;;;5076402;28;20465;-78
2022/08/14 05:29:51;;;;;;;15.60;13.80;;;26.80;61.30;;;;;;5077151;28;20476;-77
2022/08/14 05:32:22;;;;;;;16.93;14.70;;;27.40;60.60;;;;;;5079118;28;20471;-77
2022/08/14 05:34:56;;;;;;;16.10;13.03;;;27.90;60.10;;;;;;5078112;28;20559;-78
2022/08/14 05:37:25;;;;;;;16.70;12.60;;;28.50;59.50;;;;;;5084595;28;20464;-78
2022/08/14 05:39:53;;;;;;;15.57;11.40;;;29.20;58.90;;;;;;5085073;28;20464;-79
2022/08/14 05:42:22;;;;;;;18.00;13.53;;;29.80;58.10;;;;;;5084833;28;20572;-77
2022/08/14 05:44:56;;;;;;;15.40;13.80;;;30.50;57.30;;;;;;5078538;28;20733;-79
2022/08/14 05:47:25;;;;;;;14.57;12.70;;;31.10;56.50;;;;;;5085253;28;21081;-78
2022/08/14 05:50:10;;;;;;;14.20;11.60;;;31.80;55.50;;;;;;5080889;28;20467;-79
2022/08/14 05:52:47;;;;;;;14.43;12.77;;;32.40;54.50;;;;;;5077872;28;20493;-79
2022/08/14 05:55:15;;;;;;;14.83;13.23;;;33.00;53.40;;;;;;5063224;28;20479;-81
2022/08/14 05:57:51;;;;;;;15.53;13.93;;;33.60;52.50;;;;;;5078285;28;20452;-79
2022/08/14 06:00:21;;;;;;;14.20;12.50;;;34.00;51.60;;;;;;5078825;28;20483;-79
2022/08/14 06:02:58;;;;;;;13.13;11.73;;;34.50;50.70;;;;;;5074257;28;20515;-78
2022/08/14 06:05:28;;;;;;;14.83;13.27;;;34.20;49.30;;;;;;5074530;28;20956;-77
2022/08/14 06:08:18;;;;;;;14.97;13.37;;;33.10;49.40;;;;;;5072779;28;20541;-77
2022/08/14 06:11:06;;;;;;;15.70;13.50;;;31.30;49.60;;;;;;5075429;28;20468;-78
2022/08/14 06:13:36;;;;;;;16.50;13.90;;;29.60;52.10;;;;;;5074477;28;20873;-78
2022/08/14 06:16:15;;;;;;;16.30;12.97;;;28.50;53.60;;;;;;5082140;28;21350;-78
2022/08/14 06:18:46;;;;;;;15.77;14.07;;;27.50;55.10;;;;;;5081006;28;21015;-77
2022/08/14 06:21:15;;;;;;;15.80;13.27;;;26.70;56.50;;;;;;5075510;28;21386;-78
2022/08/14 06:23:44;;;;;;;14.67;13.00;;;26.20;57.50;;;;;;5077441;28;20531;-79
2022/08/14 06:26:17;;;;;;;16.20;13.10;;;25.70;58.50;;;;;;5078838;28;20468;-79
2022/08/14 06:28:49;;;;;;;14.73;13.17;;;25.30;59.70;;;;;;5067936;28;20990;-80
2022/08/14 06:31:21;;;;;;;14.87;12.80;;;25.00;60.20;;;;;;5062315;28;20492;-80
2022/08/14 06:33:49;;;;;;;18.70;13.20;;;24.70;61.10;;;;;;5071181;28;21036;-79
2022/08/14 06:36:38;;;;;;;15.60;13.17;;;24.50;62.00;;;;;;5091749;28;20475;-79
2022/08/14 06:39:06;;;;;;;16.63;13.20;;;24.30;62.80;;;;;;5095420;28;21269;-79
2022/08/14 06:41:40;;;;;;;17.23;13.80;;;24.10;63.40;;;;;;5097074;28;20524;-79
2022/08/14 06:44:26;;;;;;;15.30;13.20;;;24.00;64.00;;;;;;5092128;28;20538;-79
2022/08/14 06:47:00;;;;;;;15.00;13.40;;;23.90;64.90;;;;;;5093288;28;20480;-79
2022/08/14 06:49:28;;;;;;;16.77;13.53;;;23.80;65.20;;;;;;5075527;28;20508;-80
2022/08/14 06:51:57;;;;;;;17.93;13.70;;;23.80;65.50;;;;;;5093466;28;20532;-80
2022/08/14 06:54:25;;;;;;;20.10;13.70;;;23.80;66.00;;;;;;5072373;28;20481;-79
2022/08/14 06:56:59;;;;;;;16.10;13.13;;;23.80;66.20;;;;;;5085068;28;20569;-79
2022/08/14 06:59:27;;;;;;;16.50;13.70;;;23.80;66.50;;;;;;5098121;27;20477;-78
2022/08/14 07:07:36;;;;;;;14.30;12.37;;;23.80;67.10;;;;;;5074988;28;20451;-78
2022/08/14 07:10:06;;;;;;;14.07;12.57;;;23.80;67.30;;;;;;5097435;28;20459;-78
2022/08/14 07:12:45;;;;;;;16.03;12.07;;;23.80;67.60;;;;;;5087307;28;20485;-78
2022/08/14 07:15:29;;;;;;;14.43;11.67;;;23.80;67.80;;;;;;5083992;28;20469;-78
2022/08/14 07:18:00;;;;;;;12.70;11.17;;;23.90;67.80;;;;;;5067409;28;20646;-78
2022/08/14 07:20:30;;;;;;;14.83;10.93;;;23.90;68.10;;;;;;5083790;28;20454;-79
2022/08/14 07:22:59;;;;;;;13.90;11.10;;;24.00;68.20;;;;;;5081846;28;20496;-78
2022/08/14 07:25:36;;;;;;;14.70;11.77;;;24.00;68.10;;;;;;5083019;28;20539;-78
2022/08/14 07:28:11;;;;;;;14.07;11.43;;;24.10;68.10;;;;;;5088196;28;20489;-78
2022/08/14 07:30:47;;;;;;;12.77;11.07;;;24.20;68.10;;;;;;5086065;28;20562;-78
2022/08/14 07:33:19;;;;;;;15.00;10.37;;;24.20;68.10;;;;;;5071754;28;20474;-78
2022/08/14 07:35:58;;;;;;;15.40;12.00;;;24.20;68.00;;;;;;5092197;28;20475;-79
2022/08/14 07:38:26;;;;;;;13.77;10.93;;;24.20;68.00;;;;;;5082898;28;20446;-79
2022/08/14 07:41:04;;;;;;;12.97;10.73;;;24.30;68.00;;;;;;5085827;28;20457;-79
2022/08/14 07:43:41;;;;;;;11.60;10.07;;;24.30;68.00;;;;;;5079690;28;20472;-79
2022/08/14 07:46:09;;;;;;;13.70;11.10;;;24.40;68.00;;;;;;5083574;28;20482;-78
2022/08/14 07:48:40;;;;;;;14.47;10.83;;;24.40;68.00;;;;;;5081525;28;21018;-77
2022/08/14 07:51:08;;;;;;;14.30;11.73;;;24.50;67.70;;;;;;5080522;28;20492;-78
2022/08/14 07:53:39;;;;;;;13.47;11.00;;;24.50;67.60;;;;;;5083538;28;20476;-80
2022/08/14 07:56:09;;;;;;;13.30;11.40;;;24.60;67.60;;;;;;5086784;28;20632;-80
2022/08/14 07:58:58;;;;;;;16.33;11.27;;;24.60;67.60;;;;;;5073107;28;20461;-79
2022/08/14 08:01:29;;;;;;;12.63;10.53;;;24.70;67.40;;;;;;5064709;28;21178;-80
2022/08/14 08:03:58;;;;;;;13.00;10.07;;;24.70;67.30;;;;;;5085612;28;20476;-80
2022/08/14 08:06:29;;;;;;;12.10;9.97;;;24.80;67.20;;;;;;5068529;28;20472;-78
2022/08/14 08:08:59;;;;;;;12.03;10.17;;;24.80;67.00;;;;;;5083648;28;21003;-79
2022/08/14 08:11:32;;;;;;;11.80;9.90;;;24.90;66.90;;;;;;5067718;28;20460;-78
2022/08/14 08:14:06;;;;;;;12.90;11.50;;;24.90;66.80;;;;;;5081762;28;20562;-78
2022/08/14 08:16:46;;;;;;;11.43;10.20;;;25.00;66.70;;;;;;5085044;28;20469;-79
2022/08/14 08:19:17;;;;;;;13.00;11.17;;;25.00;66.60;;;;;;5090226;28;20501;-80
2022/08/14 08:21:46;;;;;;;13.07;10.33;;;25.10;66.50;;;;;;5088226;28;20469;-78
2022/08/14 08:24:15;;;;;;;12.30;9.73;;;25.10;66.40;;;;;;5081016;28;20498;-78
2022/08/14 08:26:46;;;;;;;13.67;11.60;;;25.20;66.30;;;;;;5079975;28;20461;-78
2022/08/14 08:29:22;;;;;;;14.20;11.53;;;25.20;66.20;;;;;;5078320;28;20455;-77
2022/08/14 08:31:58;;;;;;;12.00;10.40;;;25.30;66.20;;;;;;5062978;28;20521;-78
2022/08/14 08:34:44;;;;;;;13.53;10.33;;;25.30;66.10;;;;;;5065174;28;20482;-78
2022/08/14 08:37:13;;;;;;;14.93;10.63;;;25.40;65.90;;;;;;5086441;28;20564;-79
2022/08/14 08:39:44;;;;;;;16.93;11.23;;;25.50;65.80;;;;;;5082778;28;20496;-76
2022/08/14 08:42:31;;;;;;;12.80;10.23;;;25.50;65.70;;;;;;5061598;28;20537;-79
2022/08/14 08:45:15;;;;;;;10.33;8.90;;;25.60;65.50;;;;;;5080077;28;20468;-79
2022/08/14 08:47:44;;;;;;;13.30;9.63;;;25.60;65.40;;;;;;5085115;28;20963;-77
2022/08/14 08:50:19;;;;;;;11.30;9.17;;;25.70;65.10;;;;;;5064186;28;20799;-77
2022/08/14 08:52:51;;;;;;;13.70;10.70;;;25.80;64.80;;;;;;5062361;28;21204;-77
2022/08/14 08:55:27;;;;;;;13.20;10.20;;;25.90;64.70;;;;;;5074368;28;20457;-77
2022/08/14 08:57:59;;;;;;;21.50;17.40;;;25.90;64.50;;;;;;5076424;28;21073;-78
2022/08/14 09:00:33;;;;;;;11.87;9.43;;;26.00;64.40;;;;;;5079409;28;20555;-78
2022/08/14 09:03:06;;;;;;;11.30;9.53;;;26.00;64.00;;;;;;5081501;28;20467;-77
2022/08/14 09:05:48;;;;;;;12.60;9.60;;;26.10;63.60;;;;;;5085667;28;20586;-77
2022/08/14 09:08:23;;;;;;;12.20;9.10;;;26.20;63.30;;;;;;5075469;28;20483;-77
2022/08/14 09:11:01;;;;;;;10.63;9.03;;;26.20;63.20;;;;;;5076477;28;20461;-76
2022/08/14 09:13:30;;;;;;;10.10;8.67;;;26.30;63.00;;;;;;5082316;28;20475;-79
2022/08/14 09:16:01;;;;;;;11.00;8.33;;;26.30;62.80;;;;;;5082906;28;20475;-78
2022/08/14 09:18:46;;;;;;;12.47;7.70;;;26.40;62.50;;;;;;5085527;28;20494;-79
2022/08/14 09:21:14;;;;;;;11.07;9.10;;;26.40;62.20;;;;;;5084017;28;20550;-77
2022/08/14 09:23:43;;;;;;;12.17;8.53;;;26.50;62.00;;;;;;5078601;28;20511;-78
2022/08/14 09:26:31;;;;;;;10.73;8.30;;;26.60;61.90;;;;;;5080336;28;20507;-76
2022/08/14 09:29:00;;;;;;;9.77;8.13;;;26.70;61.40;;;;;;5067749;28;20468;-78
2022/08/14 09:31:33;;;;;;;10.47;8.73;;;26.80;61.00;;;;;;5084851;28;20494;-77
2022/08/14 09:34:29;;;;;;;11.87;8.30;;;26.80;60.90;;;;;;5090173;28;20471;-77
2022/08/14 09:37:27;;;;;;;14.73;8.27;;;26.80;60.60;;;;;;5068299;28;20479;-76
2022/08/14 09:40:04;;;;;;;10.30;8.30;;;26.80;60.10;;;;;;5083695;28;20479;-77
2022/08/14 09:42:58;;;;;;;12.00;9.13;;;26.90;60.20;;;;;;5079758;28;20455;-77
2022/08/14 09:45:32;;;;;;;10.53;8.00;;;26.90;60.10;;;;;;5063087;28;20889;-77
2022/08/14 09:48:22;;;;;;;9.40;8.03;;;27.00;59.80;;;;;;5063117;28;20449;-78
2022/08/14 09:50:58;;;;;;;10.63;8.03;;;27.10;59.40;;;;;;5077366;28;20531;-76
2022/08/14 09:53:42;;;;;;;10.37;7.87;;;27.20;59.30;;;;;;5076183;28;20471;-77
2022/08/14 09:56:42;;;;;;;10.30;8.03;;;27.20;58.90;;;;;;5062423;28;20548;-79
2022/08/14 09:59:13;;;;;;;10.43;8.00;;;27.30;59.00;;;;;;5077075;28;20481;-79
2022/08/14 10:01:44;;;;;;;9.53;7.80;;;27.30;58.90;;;;;;5060350;28;20488;-78
2022/08/14 10:04:23;;;;;;;10.97;8.17;;;27.40;58.70;;;;;;5074668;28;20516;-78
2022/08/14 10:07:03;;;;;;;9.03;6.93;;;27.50;58.40;;;;;;5072985;28;20512;-79
2022/08/14 10:09:32;;;;;;;10.77;8.07;;;27.50;58.00;;;;;;5071369;28;20553;-78
2022/08/14 10:12:03;;;;;;;10.70;8.30;;;27.50;57.80;;;;;;5071297;28;20448;-78
2022/08/14 10:14:34;;;;;;;10.13;7.70;;;27.50;57.70;;;;;;5075658;28;21058;-78
2022/08/14 10:17:06;;;;;;;9.60;6.67;;;27.50;57.50;;;;;;5073795;28;20990;-78
2022/08/14 10:19:48;;;;;;;7.30;5.87;;;27.50;57.10;;;;;;5076721;28;20471;-78
2022/08/14 10:22:16;;;;;;;10.00;6.70;;;27.60;56.70;;;;;;5060618;28;20468;-78
2022/08/14 10:25:13;;;;;;;9.93;7.43;;;27.60;56.80;;;;;;5077014;28;20547;-76
2022/08/14 10:27:43;;;;;;;9.07;7.23;;;27.70;56.60;;;;;;5073877;28;20451;-79
2022/08/14 10:30:13;;;;;;;11.63;8.20;;;27.70;56.60;;;;;;5078276;28;20468;-79
2022/08/14 10:32:50;;;;;;;9.40;7.33;;;27.80;56.60;;;;;;5087490;28;20927;-79
2022/08/14 10:35:21;;;;;;;8.63;6.90;;;27.90;56.50;;;;;;5076210;28;20472;-78
2022/08/14 10:38:01;;;;;;;9.40;6.90;;;27.90;56.30;;;;;;5074645;28;20484;-79
2022/08/14 10:40:34;;;;;;;8.50;6.40;;;28.00;56.20;;;;;;5076115;28;20483;-79
2022/08/14 10:43:20;;;;;;;8.30;6.67;;;28.00;55.90;;;;;;5074464;28;20493;-79
2022/08/14 10:45:56;;;;;;;8.00;6.23;;;28.10;55.50;;;;;;5072417;28;20485;-78
2022/08/14 10:48:56;;;;;;;7.80;6.20;;;28.10;55.20;;;;;;5072571;28;20489;-79
2022/08/14 10:51:26;;;;;;;12.10;7.77;;;28.20;54.90;;;;;;5075247;28;20463;-78
2022/08/14 10:54:07;;;;;;;9.27;7.00;;;28.20;54.90;;;;;;5073652;28;20491;-76
2022/08/14 10:56:56;;;;;;;8.40;6.53;;;28.20;54.80;;;;;;5075296;28;20501;-77
2022/08/14 10:59:25;;;;;;;8.70;6.77;;;28.30;54.70;;;;;;5079041;28;20838;-79
2022/08/14 11:01:58;;;;;;;8.80;6.33;;;28.30;54.60;;;;;;5077853;28;20476;-77
2022/08/14 11:04:27;;;;;;;8.47;7.23;;;28.30;54.60;;;;;;5075372;28;20563;-79
2022/08/14 11:06:59;;;;;;;8.13;6.13;;;28.30;54.50;;;;;;5063129;28;20460;-78
2022/08/14 11:09:28;;;;;;;9.00;6.20;;;28.30;54.50;;;;;;5072915;28;20520;-78
2022/08/14 11:12:00;;;;;;;8.77;6.53;;;28.30;54.50;;;;;;5075466;28;20505;-79
2022/08/14 11:14:56;;;;;;;7.70;6.57;;;28.40;54.50;;;;;;5075911;28;20828;-79
2022/08/14 11:17:31;;;;;;;8.80;6.63;;;28.50;54.40;;;;;;5073756;28;20553;-80
2022/08/14 11:20:01;;;;;;;8.30;7.10;;;28.50;54.30;;;;;;5078381;28;20562;-77
2022/08/14 11:22:32;;;;;;;7.10;5.90;;;28.50;54.20;;;;;;5064022;28;20455;-79
2022/08/14 11:25:23;;;;;;;8.63;5.60;;;28.50;53.90;;;;;;5077860;28;20463;-79
2022/08/14 11:28:06;;;;;;;8.00;6.13;;;28.50;53.80;;;;;;5072541;28;20458;-79
2022/08/14 11:30:43;;;;;;;8.33;5.50;;;28.60;53.70;;;;;;5076530;28;20503;-80
2022/08/14 11:33:23;;;;;;;9.53;5.77;;;28.60;53.70;;;;;;5071626;28;20537;-79
2022/08/14 11:35:51;;;;;;;7.70;6.20;;;28.70;53.70;;;;;;5069773;28;20491;-79
2022/08/14 11:38:29;;;;;;;8.13;5.73;;;28.70;53.60;;;;;;5078211;28;20465;-79
2022/08/14 11:40:57;;;;;;;8.30;6.40;;;28.70;53.40;;;;;;5079944;28;20528;-79
2022/08/14 11:43:27;;;;;;;9.17;6.47;;;28.70;53.50;;;;;;5081283;28;20502;-78
2022/08/14 11:45:57;;;;;;;7.90;5.67;;;28.70;53.50;;;;;;5075207;28;20548;-79
2022/08/14 11:48:30;;;;;;;7.70;5.70;;;28.80;53.40;;;;;;5078186;28;20462;-78
2022/08/14 11:51:22;;;;;;;7.27;5.43;;;28.80;53.30;;;;;;5070948;28;20878;-79
2022/08/14 11:53:54;;;;;;;9.10;4.90;;;28.90;53.00;;;;;;5078845;28;20567;-77
2022/08/14 11:56:22;;;;;;;6.90;5.00;;;28.90;52.80;;;;;;5082848;28;20452;-79
2022/08/14 11:58:54;;;;;;;6.90;5.40;;;29.00;52.70;;;;;;5074943;28;20500;-79
2022/08/14 12:01:27;;;;;;;7.63;5.07;;;29.10;52.50;;;;;;5079196;28;20568;-79
2022/08/14 12:03:57;;;;;;;7.27;4.77;;;29.10;52.50;;;;;;5074800;28;20517;-77
2022/08/14 12:06:27;;;;;;;7.80;5.30;;;29.20;52.10;;;;;;5074011;28;20555;-78
2022/08/14 12:09:08;;;;;;;7.10;4.63;;;29.30;51.80;;;;;;5075331;28;20449;-79
2022/08/14 12:11:43;;;;;;;7.27;5.17;;;29.40;51.40;;;;;;5076894;28;20468;-79
2022/08/14 12:14:18;;;;;;;7.00;4.83;;;29.40;51.20;;;;;;5081587;28;20570;-79
2022/08/14 12:17:06;;;;;;;7.40;5.30;;;29.50;51.20;;;;;;5078695;28;20513;-79
2022/08/14 12:19:50;;;;;;;6.73;5.00;;;29.60;51.20;;;;;;5079662;28;20475;-79
2022/08/14 12:22:37;;;;;;;6.67;4.90;;;29.60;50.90;;;;;;5073194;28;20481;-79
2022/08/14 12:25:13;;;;;;;6.17;4.43;;;29.60;51.10;;;;;;5076917;28;20491;-78
2022/08/14 12:36:02;;;;;;;7.00;5.30;;;29.70;50.90;;;;;;5065732;28;20428;-79
2022/08/14 12:38:35;;;;;;;8.30;6.20;;;29.70;50.90;;;;;;5084256;28;20528;-78
2022/08/14 12:41:10;;;;;;;7.17;5.03;;;29.70;50.80;;;;;;5079035;28;20792;-79
2022/08/14 12:43:50;;;;;;;7.80;5.00;;;29.70;50.80;;;;;;5081442;28;20557;-78
2022/08/14 12:46:26;;;;;;;8.43;5.50;;;29.60;50.80;;;;;;5078167;28;20495;-79
2022/08/14 12:48:58;;;;;;;8.47;5.23;;;29.70;50.90;;;;;;5065017;28;20467;-77
2022/08/14 12:51:27;;;;;;;5.57;4.10;;;29.70;50.80;;;;;;5081668;28;20472;-79
2022/08/14 12:53:58;;;;;;;6.50;4.10;;;29.80;50.50;;;;;;5081287;28;20480;-79
2022/08/14 12:56:29;;;;;;;10.80;4.43;;;29.80;50.30;;;;;;5081628;28;20480;-78
2022/08/14 12:59:02;;;;;;;7.00;4.53;;;29.90;50.10;;;;;;5077822;28;20482;-79
2022/08/14 13:01:32;;;;;;;7.17;4.17;;;29.90;50.20;;;;;;5079685;28;20508;-78
2022/08/14 13:04:21;;;;;;;7.23;4.70;;;30.00;50.00;;;;;;5081005;28;20481;-78
2022/08/14 13:06:51;;;;;;;7.20;4.67;;;30.10;49.60;;;;;;5080112;28;20456;-78
2022/08/14 13:09:26;;;;;;;7.83;4.53;;;30.10;49.60;;;;;;5066163;28;20551;-77
2022/08/14 13:12:05;;;;;;;6.20;4.23;;;30.20;49.50;;;;;;5074577;28;20469;-79
2022/08/14 13:14:56;;;;;;;6.40;4.20;;;30.10;49.40;;;;;;5062872;28;20466;-78
2022/08/14 13:17:24;;;;;;;6.63;4.57;;;30.20;49.50;;;;;;5072710;28;20474;-79
2022/08/14 13:19:57;;;;;;;6.40;4.53;;;30.20;49.60;;;;;;5079382;28;20555;-78
2022/08/14 13:22:26;;;;;;;6.27;4.47;;;30.20;49.60;;;;;;5075199;28;20828;-78
2022/08/14 13:25:04;;;;;;;6.80;4.87;;;30.30;49.60;;;;;;5079998;28;20458;-78
2022/08/14 13:27:35;;;;;;;7.53;4.93;;;30.20;49.70;;;;;;5079768;28;20456;-77
2022/08/14 13:30:09;;;;;;;9.43;4.50;;;30.30;49.50;;;;;;5079603;28;20464;-78
2022/08/14 13:32:50;;;;;;;7.23;4.70;;;30.30;49.40;;;;;;5077496;28;20480;-77
2022/08/14 13:35:19;;;;;;;6.23;4.53;;;30.40;49.30;;;;;;5076340;28;20458;-79
2022/08/14 13:37:50;;;;;;;6.20;4.10;;;30.40;49.30;;;;;;5081111;28;20451;-76
2022/08/14 13:40:23;;;;;;;6.47;4.27;;;30.50;49.30;;;;;;5076386;28;20573;-78